createdAt,value
2023-01-10T00:02:20.574Z,97.99
2023-01-10T00:04:48.159Z,98.33
2023-01-10T00:07:15.716Z,98.53
2023-01-10T00:09:43.336Z,98.33
2023-01-10T00:12:28.545Z,98.25
2023-01-10T00:14:57.543Z,98.97
2023-01-10T00:17:25.111Z,99.67
2023-01-10T00:19:52.704Z,99.61
2023-01-10T00:22:25.011Z,98.35
2023-01-10T00:24:52.715Z,96.66
2023-01-10T00:27:22.615Z,96.25
2023-01-10T00:29:52.194Z,95.77
2023-01-10T00:32:21.817Z,94.10
2023-01-10T00:34:49.392Z,93.23
2023-01-10T00:37:17.032Z,93.04
2023-01-10T00:39:44.558Z,90.90
2023-01-10T00:42:32.372Z,89.89
2023-01-10T00:45:00.002Z,90.54
2023-01-10T00:47:28.885Z,90.92
2023-01-10T00:49:56.392Z,90.78
2023-01-10T00:52:23.896Z,90.54
2023-01-10T00:54:51.460Z,91.03
2023-01-10T00:57:19.187Z,91.28
2023-01-10T00:59:46.805Z,91.62
2023-01-10T01:02:14.335Z,90.96
2023-01-10T01:04:43.302Z,90.71
2023-01-10T01:07:10.801Z,89.69
2023-01-10T01:09:59.250Z,89.49
2023-01-10T01:12:26.770Z,89.12
2023-01-10T01:14:56.374Z,88.26
2023-01-10T01:17:23.879Z,87.81
2023-01-10T01:19:52.775Z,87.59
2023-01-10T01:22:20.652Z,86.74
2023-01-10T01:24:48.277Z,86.29
2023-01-10T01:27:15.818Z,86.36
2023-01-10T01:29:43.811Z,86.61
2023-01-10T01:32:11.828Z,86.97
2023-01-10T01:34:39.411Z,87.32
2023-01-10T01:37:08.332Z,87.21
2023-01-10T01:39:35.859Z,87.05
2023-01-10T01:42:03.562Z,87.29
2023-01-10T01:44:32.733Z,87.94
2023-01-10T01:47:05.533Z,87.46
2023-01-10T01:49:35.531Z,88.03
2023-01-10T01:52:09.531Z,87.79
2023-01-10T01:54:38.858Z,87.04
2023-01-10T01:57:10.890Z,87.01
2023-01-10T01:59:42.873Z,87.99
2023-01-10T02:02:17.046Z,88.41
2023-01-10T02:04:52.277Z,87.80
2023-01-10T02:07:20.436Z,87.71
2023-01-10T02:09:53.070Z,88.20
2023-01-10T02:12:21.064Z,88.23
2023-01-10T02:14:51.589Z,87.39
2023-01-10T02:17:19.198Z,87.97
2023-01-10T02:19:53.098Z,87.41
2023-01-10T02:22:54.891Z,87.64
2023-01-10T02:25:53.075Z,89.04
2023-01-10T02:28:51.675Z,88.67
2023-01-10T02:31:50.568Z,88.65
2023-01-10T02:34:25.919Z,88.69
2023-01-10T02:37:02.582Z,87.96
2023-01-10T02:39:37.427Z,87.85
2023-01-10T02:42:09.472Z,87.81
2023-01-10T02:44:43.855Z,87.77
2023-01-10T02:47:14.572Z,88.29
2023-01-10T02:49:43.573Z,87.46
2023-01-10T02:52:11.940Z,87.34
2023-01-10T02:54:39.643Z,87.32
2023-01-10T02:57:30.963Z,87.63
2023-01-10T03:00:18.716Z,87.87
2023-01-10T03:02:58.492Z,88.52
2023-01-10T03:05:36.612Z,89.29
2023-01-10T03:08:19.428Z,88.97
2023-01-10T03:10:52.823Z,89.34
2023-01-10T03:13:27.431Z,89.95
2023-01-10T03:15:58.087Z,90.44
2023-01-10T03:18:33.818Z,91.48
2023-01-10T03:21:05.112Z,90.94
2023-01-10T03:23:34.736Z,90.56
2023-01-10T03:26:04.407Z,90.45
2023-01-10T03:28:38.777Z,90.20
2023-01-10T03:31:11.629Z,89.26
2023-01-10T03:33:42.051Z,88.33
2023-01-10T03:36:20.781Z,87.98
2023-01-10T03:38:53.431Z,88.30
2023-01-10T03:41:30.770Z,88.31
2023-01-10T03:44:23.657Z,88.99
2023-01-10T03:46:59.198Z,88.52
2023-01-10T03:49:29.936Z,88.67
2023-01-10T03:51:59.494Z,88.89
2023-01-10T03:54:27.055Z,89.49
2023-01-10T03:56:54.616Z,89.96
2023-01-10T03:59:25.599Z,90.27
2023-01-10T04:01:53.636Z,90.63
2023-01-10T04:04:21.754Z,90.25
2023-01-10T04:06:50.798Z,90.26
2023-01-10T04:09:18.346Z,88.92
2023-01-10T04:11:46.099Z,88.64
2023-01-10T04:14:13.614Z,88.70
2023-01-10T04:16:41.227Z,89.03
2023-01-10T04:19:08.962Z,89.46
2023-01-10T04:21:36.524Z,89.78
2023-01-10T04:24:05.782Z,89.60
2023-01-10T04:26:33.386Z,90.16
2023-01-10T04:29:00.926Z,90.64
2023-01-10T04:31:29.124Z,90.83
2023-01-10T04:33:56.704Z,90.83
2023-01-10T04:36:24.300Z,91.41
2023-01-10T04:38:51.831Z,91.28
2023-01-10T04:41:20.695Z,91.30
2023-01-10T04:43:49.730Z,91.19
2023-01-10T04:46:17.764Z,91.35
2023-01-10T04:48:45.326Z,91.53
2023-01-10T04:51:12.983Z,91.60
2023-01-10T04:53:42.302Z,92.40
2023-01-10T04:56:12.691Z,91.66
2023-01-10T04:58:41.612Z,91.05
2023-01-10T05:01:10.633Z,91.02
2023-01-10T05:03:38.332Z,91.68
2023-01-10T05:06:08.369Z,91.33
2023-01-10T05:08:38.395Z,91.80
2023-01-10T05:11:06.253Z,91.23
2023-01-10T05:13:38.226Z,90.88
2023-01-10T05:16:08.763Z,90.61
2023-01-10T05:18:36.492Z,90.99
2023-01-10T05:21:05.946Z,90.96
2023-01-10T05:23:34.354Z,90.52
2023-01-10T05:26:07.062Z,91.51
2023-01-10T05:28:34.694Z,91.74
2023-01-10T05:31:02.346Z,92.13
2023-01-10T05:33:31.323Z,92.05
2023-01-10T05:36:01.592Z,92.45
2023-01-10T05:38:30.054Z,93.29
2023-01-10T05:40:59.055Z,93.62
2023-01-10T05:43:27.948Z,93.88
2023-01-10T05:45:55.769Z,92.82
2023-01-10T05:48:23.737Z,91.84
2023-01-10T05:50:53.922Z,91.83
2023-01-10T05:53:21.744Z,91.35
2023-01-10T05:55:54.359Z,90.90
2023-01-10T05:58:21.949Z,91.10
2023-01-10T06:00:49.743Z,90.91
2023-01-10T06:03:17.702Z,90.96
2023-01-10T06:05:47.778Z,91.08
2023-01-10T06:08:17.870Z,91.47
2023-01-10T06:10:45.521Z,92.60
2023-01-10T06:13:13.203Z,93.20
2023-01-10T06:15:41.009Z,93.28
2023-01-10T06:18:11.839Z,94.02
2023-01-10T06:20:39.849Z,93.57
2023-01-10T06:23:07.414Z,93.09
2023-01-10T06:25:40.332Z,93.30
2023-01-10T06:28:08.316Z,92.85
2023-01-10T06:30:36.165Z,92.17
2023-01-10T06:33:04.869Z,92.00
2023-01-10T06:35:33.143Z,91.60
2023-01-10T06:38:00.724Z,91.18
2023-01-10T06:40:29.624Z,91.27
2023-01-10T06:42:59.139Z,90.67
2023-01-10T06:45:26.836Z,90.26
2023-01-10T06:47:54.491Z,89.66
2023-01-10T06:50:22.059Z,89.50
2023-01-10T06:52:58.817Z,89.26
2023-01-10T06:55:26.721Z,89.00
2023-01-10T06:57:59.066Z,88.60
2023-01-10T07:00:28.324Z,87.69
2023-01-10T07:02:57.453Z,88.05
2023-01-10T07:05:25.182Z,88.34
2023-01-10T07:07:52.732Z,87.22
2023-01-10T07:10:20.400Z,87.56
2023-01-10T07:12:47.982Z,87.26
2023-01-10T07:15:17.000Z,86.30
2023-01-10T07:17:44.619Z,85.72
2023-01-10T07:20:13.320Z,86.03
2023-01-10T07:22:40.994Z,85.78
2023-01-10T07:25:09.585Z,86.81
2023-01-10T07:27:37.283Z,86.47
2023-01-10T07:30:05.815Z,87.33
2023-01-10T07:32:35.151Z,87.18
2023-01-10T07:35:03.025Z,87.94
2023-01-10T07:37:30.595Z,87.71
2023-01-10T07:39:58.137Z,87.82
2023-01-10T07:42:25.707Z,86.79
2023-01-10T07:44:53.249Z,86.58
2023-01-10T07:47:20.798Z,86.24
2023-01-10T07:49:49.762Z,86.30
2023-01-10T07:52:17.349Z,85.51
2023-01-10T07:54:45.004Z,85.64
2023-01-10T07:57:12.771Z,86.42
2023-01-10T07:59:40.528Z,85.33
2023-01-10T08:02:10.416Z,85.10
2023-01-10T08:04:38.799Z,84.23
2023-01-10T08:07:07.905Z,82.75
2023-01-10T08:09:35.464Z,81.51
2023-01-10T08:12:03.063Z,80.83
2023-01-10T08:14:30.770Z,80.97
2023-01-10T08:16:58.385Z,80.79
2023-01-10T08:19:25.956Z,80.47
2023-01-10T08:21:53.886Z,81.29
2023-01-10T08:24:22.799Z,81.56
2023-01-10T08:26:50.879Z,81.95
2023-01-10T08:29:18.541Z,81.80
2023-01-10T08:31:46.135Z,82.37
2023-01-10T08:34:14.084Z,82.70
2023-01-10T08:36:41.690Z,82.17
2023-01-10T08:39:09.512Z,82.50
2023-01-10T08:41:39.587Z,83.04
2023-01-10T08:44:07.195Z,82.18
2023-01-10T08:46:34.840Z,81.70
2023-01-10T08:49:02.378Z,81.13
2023-01-10T08:51:30.113Z,79.39
2023-01-10T08:53:57.683Z,78.81
2023-01-10T08:56:25.352Z,78.65
2023-01-10T08:58:54.291Z,77.19
2023-01-10T09:01:21.997Z,76.97
2023-01-10T09:03:49.640Z,77.88
2023-01-10T09:06:17.358Z,77.60
2023-01-10T09:08:44.996Z,78.14
2023-01-10T09:11:12.622Z,78.55
2023-01-10T09:13:42.200Z,79.79
2023-01-10T09:16:11.660Z,79.48
2023-01-10T09:18:39.497Z,80.13
2023-01-10T09:21:08.586Z,81.04
2023-01-10T09:23:37.269Z,79.93
2023-01-10T09:26:07.066Z,80.51
2023-01-10T09:28:34.697Z,79.86
2023-01-10T09:31:06.519Z,79.95
2023-01-10T09:33:46.257Z,79.47
2023-01-10T09:36:15.530Z,78.66
2023-01-10T09:38:43.619Z,78.50
2023-01-10T09:41:49.632Z,78.59
2023-01-10T09:44:22.156Z,78.05
2023-01-10T09:47:05.962Z,77.79
2023-01-10T09:49:49.434Z,76.25
2023-01-10T09:52:23.291Z,76.22
2023-01-10T09:54:54.180Z,75.96
2023-01-10T09:57:26.770Z,75.77
2023-01-10T09:59:54.739Z,75.33
2023-01-10T10:02:34.692Z,74.65
2023-01-10T10:05:11.262Z,74.95
2023-01-10T10:07:41.453Z,74.67
2023-01-10T10:10:13.871Z,73.73
2023-01-10T10:12:50.237Z,73.43
2023-01-10T10:15:27.335Z,71.92
2023-01-10T10:18:12.438Z,70.14
2023-01-10T10:20:52.464Z,71.01
2023-01-10T10:23:36.477Z,70.93
2023-01-10T10:26:15.123Z,69.75
2023-01-10T10:29:12.675Z,69.45
2023-01-10T10:32:02.127Z,69.12
2023-01-10T10:34:38.975Z,69.19
2023-01-10T10:37:14.578Z,69.42
2023-01-10T10:39:46.826Z,68.21
2023-01-10T10:42:17.633Z,67.98
2023-01-10T10:44:51.422Z,68.33
2023-01-10T10:47:21.074Z,68.10
2023-01-10T10:49:55.573Z,67.80
2023-01-10T10:52:29.151Z,67.71
2023-01-10T10:54:57.995Z,67.04
2023-01-10T10:57:29.076Z,67.23
2023-01-10T10:59:59.747Z,67.50
2023-01-10T11:02:32.326Z,68.10
2023-01-10T11:05:04.466Z,67.80
2023-01-10T11:07:39.296Z,67.89
2023-01-10T11:10:41.764Z,69.06
2023-01-10T11:13:19.164Z,69.94
2023-01-10T11:15:48.941Z,69.57
2023-01-10T11:18:20.668Z,69.27
2023-01-10T11:20:50.707Z,69.41
2023-01-10T11:23:27.198Z,68.96
2023-01-10T11:25:55.265Z,69.42
2023-01-10T11:28:30.536Z,68.93
2023-01-10T11:31:02.575Z,68.48
2023-01-10T11:33:35.496Z,68.92
2023-01-10T11:36:05.725Z,68.78
2023-01-10T11:38:34.858Z,68.10
2023-01-10T11:41:03.808Z,69.03
2023-01-10T11:43:35.031Z,69.35
2023-01-10T11:46:05.187Z,69.83
2023-01-10T11:49:04.449Z,68.75
2023-01-10T11:51:35.496Z,68.66
2023-01-10T11:54:07.547Z,69.11
2023-01-10T11:56:36.672Z,68.37
2023-01-10T11:59:12.423Z,67.74
2023-01-10T12:01:43.189Z,67.82
2023-01-10T12:04:17.035Z,67.93
2023-01-10T12:06:48.342Z,69.31
2023-01-10T12:09:40.580Z,68.66
2023-01-10T12:12:17.687Z,69.06
2023-01-10T12:14:45.638Z,68.76
2023-01-10T12:17:22.628Z,68.95
2023-01-10T12:19:53.077Z,69.83
2023-01-10T12:22:24.838Z,69.58
2023-01-10T12:24:55.589Z,69.72
2023-01-10T12:27:29.117Z,69.41
2023-01-10T12:30:03.425Z,69.04
2023-01-10T12:32:44.454Z,68.66
2023-01-10T12:35:17.709Z,71.39
2023-01-10T12:37:49.341Z,70.84
2023-01-10T12:40:26.188Z,69.40
2023-01-10T12:43:15.284Z,68.70
2023-01-10T12:45:49.880Z,69.25
2023-01-10T12:48:26.250Z,67.98
2023-01-10T12:51:01.279Z,67.25
2023-01-10T12:53:35.068Z,67.19
2023-01-10T12:56:08.181Z,67.75
2023-01-10T12:58:42.889Z,68.54
2023-01-10T13:01:13.910Z,68.41
2023-01-10T13:03:42.039Z,68.48
2023-01-10T13:06:20.300Z,68.96
2023-01-10T13:08:48.207Z,69.93
2023-01-10T13:11:23.653Z,69.70
2023-01-10T13:13:58.125Z,69.40
2023-01-10T13:16:34.701Z,69.33
2023-01-10T13:19:23.281Z,70.28
2023-01-10T13:21:52.334Z,70.13
2023-01-10T13:24:23.264Z,69.52
2023-01-10T13:26:56.376Z,68.86
2023-01-10T13:29:26.084Z,68.43
2023-01-10T13:31:57.569Z,67.70
2023-01-10T13:34:29.130Z,67.03
2023-01-10T13:36:59.279Z,65.85
2023-01-10T13:39:32.805Z,65.57
2023-01-10T13:42:46.439Z,66.00
2023-01-10T13:45:28.880Z,66.27
2023-01-10T13:48:25.879Z,66.71
2023-01-10T13:51:16.628Z,67.78
2023-01-10T13:54:01.132Z,67.69
2023-01-10T13:56:36.067Z,67.49
2023-01-10T13:59:31.738Z,67.91
2023-01-10T14:02:21.325Z,68.40
2023-01-10T14:04:55.802Z,69.03
2023-01-10T14:07:28.156Z,70.02
2023-01-10T14:10:04.811Z,69.97
2023-01-10T14:12:35.912Z,69.61
2023-01-10T14:15:21.467Z,70.54
2023-01-10T14:17:57.101Z,70.48
2023-01-10T14:20:25.067Z,71.67
2023-01-10T14:23:06.504Z,72.44
2023-01-10T14:25:36.738Z,72.26
2023-01-10T14:28:07.003Z,72.03
2023-01-10T14:30:40.381Z,72.07
2023-01-10T14:33:16.508Z,72.27
2023-01-10T14:35:46.686Z,72.72
2023-01-10T14:38:20.901Z,72.33
2023-01-10T14:40:51.110Z,71.88
2023-01-10T14:43:24.090Z,71.91
2023-01-10T14:45:56.947Z,72.78
2023-01-10T14:48:29.875Z,72.24
2023-01-10T14:51:21.290Z,72.42
2023-01-10T14:53:56.358Z,71.86
2023-01-10T14:56:26.137Z,72.99
2023-01-10T14:58:53.835Z,73.22
2023-01-10T15:01:27.687Z,72.68
2023-01-10T15:03:56.914Z,72.97
2023-01-10T15:06:26.109Z,73.29
2023-01-10T15:08:59.876Z,73.43
2023-01-10T15:11:31.272Z,73.28
2023-01-10T15:14:04.483Z,73.54
2023-01-10T15:16:36.681Z,72.97
2023-01-10T15:19:04.539Z,73.73
2023-01-10T15:21:33.105Z,73.09
2023-01-10T15:24:00.738Z,72.72
2023-01-10T15:26:33.107Z,72.40
2023-01-10T15:29:10.720Z,73.91
2023-01-10T15:31:41.410Z,73.45
2023-01-10T15:34:11.381Z,73.73
2023-01-10T15:36:45.354Z,73.86
2023-01-10T15:39:21.518Z,74.02
2023-01-10T15:41:50.136Z,73.88
2023-01-10T15:44:33.805Z,74.20
2023-01-10T15:47:02.810Z,73.83
2023-01-10T15:49:30.689Z,74.55
2023-01-10T15:51:58.717Z,74.75
2023-01-10T15:54:31.668Z,74.76
2023-01-10T15:57:06.599Z,75.06
2023-01-10T15:59:39.104Z,74.37
2023-01-10T16:02:24.603Z,74.59
2023-01-10T16:04:58.162Z,74.01
2023-01-10T16:07:28.867Z,73.71
2023-01-10T16:09:59.088Z,73.90
2023-01-10T16:12:46.668Z,73.94
2023-01-10T16:15:17.656Z,72.81
2023-01-10T16:17:47.416Z,73.08
2023-01-10T16:20:16.033Z,73.17
2023-01-10T16:22:44.815Z,73.50
2023-01-10T16:25:17.846Z,73.74
2023-01-10T16:27:45.938Z,73.31
2023-01-10T16:30:23.264Z,73.44
2023-01-10T16:32:52.713Z,73.46
2023-01-10T16:35:20.713Z,72.76
2023-01-10T16:37:51.419Z,73.23
2023-01-10T16:40:23.419Z,73.10
2023-01-10T16:43:08.613Z,72.30
2023-01-10T16:45:36.191Z,73.11
2023-01-10T16:48:05.533Z,73.26
2023-01-10T16:50:36.139Z,72.82
2023-01-10T16:53:06.391Z,73.05
2023-01-10T16:55:42.846Z,73.30
2023-01-10T16:58:11.778Z,73.33
2023-01-10T17:00:41.071Z,72.70
2023-01-10T17:03:14.053Z,73.29
2023-01-10T17:05:41.995Z,74.10
2023-01-10T17:08:15.240Z,73.90
2023-01-10T17:10:43.111Z,73.55
2023-01-10T17:13:12.471Z,73.33
2023-01-10T17:15:41.257Z,73.57
2023-01-10T17:18:16.393Z,74.03
2023-01-10T17:20:45.177Z,74.50
2023-01-10T17:23:15.183Z,74.04
2023-01-10T17:25:45.280Z,73.60
2023-01-10T17:28:13.678Z,74.01
2023-01-10T17:30:42.540Z,73.93
2023-01-10T17:33:12.142Z,73.92
2023-01-10T17:35:41.159Z,73.74
2023-01-10T17:38:11.559Z,73.41
2023-01-10T17:40:41.206Z,73.88
2023-01-10T17:43:08.772Z,73.78
2023-01-10T17:45:39.954Z,73.33
2023-01-10T17:48:08.191Z,74.30
2023-01-10T17:50:39.901Z,73.40
2023-01-10T17:53:08.168Z,73.99
2023-01-10T17:55:35.982Z,74.42
2023-01-10T17:58:03.779Z,73.85
2023-01-10T18:00:32.171Z,74.19
2023-01-10T18:02:59.910Z,73.86
2023-01-10T18:05:27.743Z,73.89
2023-01-10T18:07:56.977Z,74.03
2023-01-10T18:10:24.611Z,74.02
2023-01-10T18:12:52.223Z,73.22
2023-01-10T18:15:19.754Z,72.88
2023-01-10T18:17:47.371Z,72.56
2023-01-10T18:20:14.936Z,73.55
2023-01-10T18:23:00.062Z,73.14
2023-01-10T18:25:29.405Z,72.59
2023-01-10T18:27:57.296Z,73.27
2023-01-10T18:30:25.636Z,72.49
2023-01-10T18:32:54.535Z,73.17
2023-01-10T18:35:22.438Z,72.66
2023-01-10T18:37:50.180Z,72.84
2023-01-10T18:40:18.282Z,72.69
2023-01-10T18:42:51.286Z,72.28
2023-01-10T18:45:18.991Z,72.44
2023-01-10T18:47:51.799Z,72.99
2023-01-10T18:50:19.586Z,72.53
2023-01-10T18:52:47.251Z,72.25
2023-01-10T18:55:15.048Z,72.19
2023-01-10T18:57:42.688Z,72.54
2023-01-10T19:00:13.317Z,72.71
2023-01-10T19:02:41.156Z,73.48
2023-01-10T19:05:09.960Z,74.08
2023-01-10T19:07:38.885Z,74.54
2023-01-10T19:10:07.633Z,75.75
2023-01-10T19:12:35.240Z,76.81
2023-01-10T19:15:02.893Z,76.41
2023-01-10T19:17:31.750Z,77.38
2023-01-10T19:19:59.402Z,77.24
2023-01-10T19:22:26.980Z,77.44
2023-01-10T19:24:54.646Z,78.65
2023-01-10T19:27:22.182Z,78.81
2023-01-10T19:29:49.913Z,79.52
2023-01-10T19:32:17.713Z,80.57
2023-01-10T19:34:46.619Z,81.10
2023-01-10T19:37:14.302Z,82.04
2023-01-10T19:39:42.223Z,82.34
2023-01-10T19:42:09.816Z,83.38
2023-01-10T19:44:37.527Z,83.45
2023-01-10T19:47:05.194Z,84.56
2023-01-10T19:49:35.945Z,85.42
2023-01-10T19:52:06.143Z,85.49
2023-01-10T19:54:33.905Z,87.47
2023-01-10T19:57:01.924Z,87.40
2023-01-10T19:59:31.588Z,87.57
2023-01-10T20:02:00.855Z,88.67
2023-01-10T20:04:28.720Z,88.90
2023-01-10T20:06:56.443Z,89.12
2023-01-10T20:09:25.554Z,89.45
2023-01-10T20:11:53.239Z,89.68
2023-01-10T20:14:22.424Z,90.25
2023-01-10T20:16:50.964Z,89.16
2023-01-10T20:19:18.698Z,90.49
2023-01-10T20:21:46.369Z,90.80
2023-01-10T20:24:16.497Z,90.57
2023-01-10T20:26:48.924Z,91.08
2023-01-10T20:29:19.891Z,90.71
2023-01-10T20:31:52.925Z,90.67
2023-01-10T20:34:21.744Z,90.20
2023-01-10T20:36:52.494Z,90.12
2023-01-10T20:39:20.131Z,90.08
2023-01-10T20:41:49.079Z,91.38
2023-01-10T20:44:16.630Z,90.81
2023-01-10T20:46:44.775Z,91.15
2023-01-10T20:49:12.606Z,90.72
2023-01-10T20:51:40.296Z,90.72
2023-01-10T20:54:11.349Z,89.95
2023-01-10T20:56:41.570Z,90.47
2023-01-10T20:59:10.554Z,91.61
2023-01-10T21:01:38.253Z,90.07
2023-01-10T21:04:07.510Z,89.07
2023-01-10T21:06:36.885Z,87.79
2023-01-10T21:09:06.183Z,88.26
2023-01-10T21:11:47.518Z,88.40
2023-01-10T21:14:23.435Z,88.17
2023-01-10T21:16:51.294Z,88.18
2023-01-10T21:19:21.134Z,87.60
2023-01-10T21:21:49.000Z,86.05
2023-01-10T21:24:16.759Z,86.40
2023-01-10T21:26:48.457Z,85.80
2023-01-10T21:29:16.462Z,86.19
2023-01-10T21:31:45.767Z,85.39
2023-01-10T21:34:13.417Z,86.71
2023-01-10T21:36:45.162Z,86.18
2023-01-10T21:39:12.892Z,86.51
2023-01-10T21:41:58.378Z,86.32
2023-01-10T21:44:26.669Z,87.21
2023-01-10T21:46:55.628Z,88.16
2023-01-10T21:49:23.322Z,87.04
2023-01-10T21:51:51.037Z,86.77
2023-01-10T21:54:18.897Z,87.57
2023-01-10T21:56:46.530Z,87.38
2023-01-10T21:59:14.277Z,88.11
2023-01-10T22:01:41.925Z,88.60
2023-01-10T22:04:10.858Z,88.96
2023-01-10T22:06:38.514Z,88.84
2023-01-10T22:09:06.106Z,88.99
2023-01-10T22:11:33.655Z,88.94
2023-01-10T22:14:01.378Z,89.86
2023-01-10T22:16:28.988Z,89.64
2023-01-10T22:18:56.557Z,89.96
2023-01-10T22:21:25.523Z,89.93
2023-01-10T22:23:53.172Z,88.64
2023-01-10T22:26:20.763Z,88.83
2023-01-10T22:28:48.421Z,89.40
2023-01-10T22:31:16.096Z,89.40
2023-01-10T22:33:46.117Z,89.55
2023-01-10T22:36:16.354Z,89.27
2023-01-10T22:38:46.190Z,89.38
2023-01-10T22:41:16.801Z,89.74
2023-01-10T22:43:45.430Z,88.89
2023-01-10T22:46:15.489Z,89.06
2023-01-10T22:48:43.816Z,88.38
2023-01-10T22:51:11.515Z,87.99
2023-01-10T22:53:40.314Z,88.56
2023-01-10T22:56:11.106Z,89.30
2023-01-10T22:58:39.116Z,89.89
2023-01-10T23:01:08.096Z,89.30
2023-01-10T23:03:35.698Z,89.33
2023-01-10T23:06:03.805Z,89.61
2023-01-10T23:08:31.621Z,89.48
2023-01-10T23:10:59.370Z,89.92
2023-01-10T23:13:28.481Z,89.94
2023-01-10T23:15:57.582Z,89.06
2023-01-10T23:18:25.279Z,88.60
2023-01-10T23:20:53.311Z,88.87
2023-01-10T23:23:21.533Z,89.34
2023-01-10T23:26:01.343Z,89.30
2023-01-10T23:28:31.330Z,88.65
2023-01-10T23:30:59.366Z,89.09
2023-01-10T23:33:27.023Z,88.62
2023-01-10T23:35:54.546Z,87.97
2023-01-10T23:38:22.243Z,88.53
2023-01-10T23:40:49.892Z,87.92
2023-01-10T23:43:17.577Z,87.66
2023-01-10T23:45:49.306Z,86.87
2023-01-10T23:48:18.255Z,86.22
2023-01-10T23:50:47.659Z,87.05
2023-01-10T23:53:17.612Z,86.92
2023-01-10T23:55:45.336Z,87.25
2023-01-10T23:58:13.714Z,87.46
